AGROMETEOROLOŠKI PORTAL

vinorodna pokrajina

Temelj dobrega kmetovanja

Izpis lokacij s podatki meritev in opazovanj za vse lokacije

Vir: ARSO
Najnižje nočne temperature
Pregled minimalnih nočnih temperatur med 17.8.2022 od 22:00 in 18.8.2022 do 10:00 (zapri pregled)
Zahodna Slovenija
Lokacija Nadmorska višina Lega Višina meritve senzorja Datum in čas meritve Dosežena min. temperatura RH Veter (m/s) Temp. rosišča Temp. mokrega termometra
Bilje UVHVVR 55 m 2 m 18.8.2022 06:00 18,7 100,0 18,7 18,7
Čelje 496 m V 2 m 18.8.2022 06:30 16,0 95,0 15,2 15,5
Dragonja 34 m S 2 m 18.8.2022 06:00 19,8 96,8 19,3 19,5
Dutovlje 316 m J 2 m 18.8.2022 04:00 18,9 95,8 18,2 18,5
Komen 269 m J 2 m 18.8.2022 04:30 18,4 94,7 17,5 17,9
Kozana 182 m S 2 m 18.8.2022 05:30 20,6 84,8 1,8 18,0 18,9
Miren. 47 m S 2 m 18.8.2022 06:00 18,8 99,3 0,7 18,7 18,7
Potoče 75 m 2 m 18.8.2022 06:30 16,0 95,1 15,2 15,5
Potoki 302 m J 2 m 18.8.2022 06:30 18,0 95,7 17,3 17,6
Pradisiol 3 m S 2 m 18.8.2022 06:00 18,1 99,3 18,0 18,1
Purisima 50 m J 2 m 18.8.2022 06:30 19,3 94,6 18,4 18,7
Slap 112 m 2 m 18.8.2022 06:00 18,6 89,7 1,3 16,9 17,5
Sužid 231 m 2 m 18.8.2022 06:30 16,6 99,1 16,5 16,5
Šlovrenc 92 m JZ 2 m 18.8.2022 05:30 17,7 100,0 17,7 17,7
Truške 230 m 2 m 18.8.2022 04:00 20,5 85,6 18,0 18,9
Vipolže 59 m 2 m 18.8.2022 05:00 18,2 92,8 1,0 17,0 17,5
Višnjevik 223 m V 2 m 18.8.2022 04:30 20,9 84,2 18,1 19,1
Vogrsko 62 m 2 m 18.8.2022 06:00 17,1 97,0 1,0 16,6 16,8
Zavrhek 340 m J 2 m 18.8.2022 06:30 17,2 97,8 16,9 17,0
Ajdovščina-Dolenje 83 m 2 m 18.8.2022 06:30 17,6 93,0 0,0 16,5 16,9
BILJE ARSO 55 m 2 m 18.8.2022 06:00 19,2 95,0 1,7 18,4 18,7
BILJE ARSO 55 m 5 cm 18.8.2022 05:00 18,2 95,0 0,8 17,4 17,7
Bovec - letališče ARSO 438 m 2 m 18.8.2022 05:00 16,9 91,0 0,0 15,4 16,0
GODNJE ARSO 315 m 2 m 18.8.2022 04:00 18,8 94,0 2,5 17,8 18,2
Ilirska Bistrica - Koseze ARSO 415 m 2 m 18.8.2022 06:30 14,8 96,0 0,8 14,2 14,4
KUBED ARSO 236 m 2 m 18.8.2022 06:00 18,3 95,0 17,5 17,8
PODNANOS - ARSO 153 m 2 m 18.8.2022 04:30 19,5 88,0 4,7 17,5 18,1
Portorož-letališče ARSO 0 m 2 m 18.8.2022 06:00 20,6 93,0 3,1 19,4 19,8
POSTOJNA ARSO 534 m 2 m 18.8.2022 07:00 15,2 98,0 1,7 14,9 15,0
ŠKOCJAN ARSO 420 m 2 m 18.8.2022 05:30 17,0 99,0 1,7 16,8 16,9
VEDRIJAN ARSO 228 m 2 m 18.8.2022 04:30 21,0 79,0 17,2 18,6
ZADLOG - ARSO 716 m 2 m 18.8.2022 06:30 14,3 91,0 12,9 13,5
Beneša - Ankaran (ZRSKP) 62 m 2 m 18.8.2022 06:00 20,6 83,0 0,6 17,6 18,7
Mala Seva - Izola (ZRSKP) 90 m 2 m 18.8.2022 03:30 22,2 95,1 2,1 21,4 21,6
Semedela - Markovec (ZRSKP) 149 m 2 m 18.8.2022 05:30 20,8 93,2 1,1 19,7 20,1
Kapelski vrh DRSI 285 m 2 m 18.8.2022 04:30 20,0 53,0 1,1 10,1 14,2
Kobarid DRSI 242 m 2 m 18.8.2022 05:30 19,0 14,0 0,8 -9,0 7,7
Koper DRSI 5 m 2 m 18.8.2022 05:00 22,0 99,0 0,8 21,8 21,9
Lazaret DRSI 2 m 2 m 18.8.2022 04:30 21,0 97,0 1,4 20,5 20,7
Valeta DRSI 100 m 2 m 18.8.2022 00:30 27,0 94,0 0,8 26,0 26,2
Cerovo 157 m 2 m 18.8.2022 05:30 19,9 82,2 16,8 17,9
Hruševlje 105 m 2 m 18.8.2022 06:30 18,3 86,2 16,0 16,8
Plešivo 109 m 2 m 18.8.2022 05:30 18,1 98,5 0,5 17,9 18,0
Osrednja Slovenija
Lokacija Nadmorska višina Lega Višina meritve senzorja Datum in čas meritve Dosežena min. temperatura RH Veter (m/s) Temp. rosišča Temp. mokrega termometra
Borovnica 288 m 2 m 18.8.2022 06:30 15,8 98,3 0,5 15,5 15,7
Brdo pri Lukovici 368 m J 2 m 18.8.2022 05:00 17,5 92,0 16,2 16,7
Češnjevek (Cerklje) 405 m S 2 m 18.8.2022 05:30 15,2 91,9 13,9 14,4
Gabrska Gora 487 m 2 m 18.8.2022 06:30 20,3 72,9 15,3 17,1
Jablje 302 m S 20 cm 18.8.2022 06:30 15,6 95,6 0,6 14,9 15,2
Jablje 302 m S 2 m 18.8.2022 06:00 16,8 94,2 0,9 15,9 16,2
Kamnik 381 m JV 2 m 18.8.2022 04:30 17,5 85,4 15,0 16,0
Kovor 514 m 2 m 18.8.2022 06:30 18,4 73,5 13,6 15,4
Kovor 514 m 20 cm 18.8.2022 05:30 17,8 73,9 13,1 14,9
Ljubljana KIS 297 m S 2 m 18.8.2022 06:30 19,8 78,9 16,0 17,4
Podbrezje 456 m JV 2 m 18.8.2022 06:30 16,4 94,8 15,6 15,9
Resje 503 m 2 m 18.8.2022 06:00 15,7 92,1 14,4 14,9
Šentjakob 279 m 20 cm 18.8.2022 06:00 15,6 90,6 14,1 14,7
Šentjakob 279 m 2 m 18.8.2022 06:30 16,4 92,5 15,2 15,7
Vnajnarje 667 m S 2 m 18.8.2022 06:00 19,8 83,3 16,9 17,9
Znojile pri Krki 331 m JV 2 m 18.8.2022 06:30 16,3 97,8 16,0 16,1
Žabnica (Dorfarje) 372 m 2 m 18.8.2022 06:30 16,0 92,4 14,8 15,2
BOHINJSKA ČEŠNJICA - ARSO 596 m 2 m 18.8.2022 06:30 15,3 87,0 13,2 14,0
BORŠT PRI GORENJI VASI ARSO 532 m 2 m 18.8.2022 07:00 17,4 91,0 1,4 15,9 16,5
BRNIK - LETALIŠČE - ARSO 364 m 2 m 18.8.2022 06:30 15,9 91,0 1,7 14,4 15,0
Lesce 515 m 2 m 18.8.2022 06:30 15,6 86,0 2,5 13,3 14,2
LITIJA ARSO 263 m 2 m 18.8.2022 06:30 16,8 92,0 15,5 16,0
Ljubljana - Bežigrad ARSO 299 m 2 m 18.8.2022 06:30 19,8 80,0 1,7 16,3 17,5
LOGATEC - ARSO 486 m 2 m 18.8.2022 06:30 14,2 95,0 13,4 13,7
NOVA VAS - BLOKE - ARSO 718 m 2 m 18.8.2022 06:30 12,6 97,0 12,1 12,3
VRHNIKA ARSO 367 m 2 m 18.8.2022 06:00 19,8 77,0 5,0 15,7 17,2
Jeprca DRSI 360 m 2 m 18.8.2022 07:00 17,1 85,0 0,4 14,6 15,5
Kranj - Delavski most DRSI 380 m 2 m 18.8.2022 07:00 18,4 84,0 1,6 15,7 16,7
Krtina 1 DRSI 308 m 2 m 18.8.2022 05:30 18,0 89,0 0,3 16,2 16,8
Moste pri Komendi DRSI 331 m 2 m 18.8.2022 06:30 17,0 97,0 0,0 16,5 16,7
Podvin DRSI 489 m 2 m 18.8.2022 06:30 10,0 100,0 1,1 10,0 10,0
Vir pri Domžalah DRSI 308 m 2 m 18.8.2022 06:00 17,0 92,0 0,8 15,7 16,2
Vrhnika AC priključek DRSI 293 m 2 m 18.8.2022 06:30 17,0 44,0 1,9 4,7 10,6
Celjska in Koroška regija
Lokacija Nadmorska višina Lega Višina meritve senzorja Datum in čas meritve Dosežena min. temperatura RH Veter (m/s) Temp. rosišča Temp. mokrega termometra
Bistrica ob Sotli 324 m J 2 m 18.8.2022 06:30 22,1 69,7 16,3 18,4
Braslovče (Pšaker) 322 m JV 2 m 18.8.2022 06:00 15,8 97,8 0,3 15,5 15,6
Črnova (Gradišnik) 453 m JZ 2 m 18.8.2022 06:30 18,5 84,5 15,8 16,8
Gabernik-Rogaška 379 m JZ 2 m 18.8.2022 07:00 21,8 68,1 15,7 17,9
Kasaze (Mirosan) 279 m S 2 m 18.8.2022 06:00 18,4 87,7 0,9 16,3 17,1
Kasaze (Mirosan) 279 m S 50 cm 18.8.2022 06:00 18,3 87,7 0,9 16,2 17,0
Latkova vas 279 m S 2 m 18.8.2022 05:00 18,4 96,0 1,7 17,8 18,0
Latkova vas 279 m S 50 cm 18.8.2022 04:30 17,3 95,6 1,4 16,6 16,9
Ojstriška vas 308 m Z 2 m 18.8.2022 07:00 19,4 83,5 16,5 17,6
Radlje ob Dravi 352 m 2 m 18.8.2022 06:30 15,6 94,9 14,8 15,1
Slom 279 m S 2 m 18.8.2022 06:00 16,1 99,7 16,1 16,1
Slovenske Konjice 359 m SV 2 m 18.8.2022 05:30 21,3 67,6 15,1 17,3
Škofja vas 246 m 2 m 18.8.2022 06:30 16,8 94,0 1,5 15,8 16,2
Virštanj 368 m S 2 m 18.8.2022 06:00 22,1 70,0 16,4 18,4
Žalec (PDC) 254 m S 2 m 18.8.2022 06:30 17,8 94,4 0,5 16,9 17,2
Celje - Medlog ARSO 241 m S 2 m 18.8.2022 05:30 17,7 89,0 1,7 15,9 16,5
PODČETRTEK - ATOMSKE TOPLICE ARSO 201 m 2 m 18.8.2022 07:00 16,7 95,0 1,4 15,9 16,2
RAVNE NA KOROŠKEM - ARSO 394 m 2 m 18.8.2022 06:30 16,4 87,0 0,8 14,2 15,1
ROGAŠKA SLATINA ARSO 289 m 2 m 18.8.2022 05:00 18,0 87,0 1,4 15,8 16,6
SLOVENSKE KONJICE ARSO 315 m 2 m 18.8.2022 06:30 21,9 64,0 14,8 17,4
ŠMARTNO PRI SLOVENJ GRADCU ARSO 442 m 2 m 18.8.2022 07:00 14,6 94,0 3,3 13,7 14,0
ŠMARTNO PRI SLOVENJ GRADCU ARSO 442 m 5 cm 18.8.2022 06:00 12,5 92,0 2,2 11,2 11,8
Črnova DRSI 304 m 2 m 18.8.2022 06:30 16,6 85,0 1,4 14,1 15,1
Radlje DRSI 355 m 2 m 18.8.2022 07:00 15,9 92,0 0,5 14,6 15,1
Rimske Toplice DRSI 210 m 2 m 18.8.2022 06:30 17,9 85,0 0,7 15,3 16,3
Šentrupert DRSI 280 m 2 m 18.8.2022 06:30 20,0 2,0 0,3 -30,6 6,1
Jugovzhodna Slovenija
Lokacija Nadmorska višina Lega Višina meritve senzorja Datum in čas meritve Dosežena min. temperatura RH Veter (m/s) Temp. rosišča Temp. mokrega termometra
Artiče 201 m J 2 m 18.8.2022 07:00 20,6 76,9 16,4 17,9
Bizeljsko 347 m J 2 m 18.8.2022 06:30 19,8 72,3 14,7 16,6
Blanca 278 m JZ 2 m 18.8.2022 07:00 18,3 87,1 16,1 16,9
Črnomelj 253 m JZ 2 m 18.8.2022 06:00 19,7 55,3 10,5 14,3
Drašiči 244 m J 2 m 18.8.2022 06:30 17,5 87,8 15,5 16,2
Kostanjevica na Krki 165 m 2 m 18.8.2022 06:30 18,3 89,8 16,6 17,2
Kostanjevica na Krki 165 m 20 cm 18.8.2022 06:30 18,3 89,8 16,6 17,2
Mali Podlog (Krško) 158 m 2 m 18.8.2022 06:30 18,9 87,7 0,9 16,8 17,6
Otočec 198 m J 2 m 18.8.2022 06:30 18,1 90,2 16,5 17,1
Rodine pri Trebnjem APS 284 m J 2 m 18.8.2022 06:30 16,0 100,0 16,0 16,0
Sremič 466 m JZ 2 m 18.8.2022 06:00 20,5 70,1 14,9 17,0
Šentjernej APS 231 m JV 2 m 18.8.2022 06:00 20,2 69,2 1,2 14,4 16,6
CERKLJE - LETALIŠČE ARSO 155 m 2 m 18.8.2022 06:30 19,4 84,0 2,5 16,6 17,6
ČRNOMELJ - DOBLIČE ARSO 155 m 2 m 18.8.2022 07:00 16,9 88,0 1,1 14,9 15,7
HOČKO POHORJE - ARSO 585 m 2 m 18.8.2022 01:30 22,4 45,0 9,9 15,1
KRŠKO - NEK ARSO 155 m 2 m 18.8.2022 06:00 18,8 100,0 3,1 18,8 18,8
MALKOVEC ARSO 397 m 2 m 18.8.2022 07:00 21,0 71,0 3,6 15,5 17,5
METLIKA ARSO 166 m 2 m 18.8.2022 06:30 16,8 93,0 15,7 16,1
NOVO MESTO ARSO 220 m 2 m 18.8.2022 06:30 17,8 92,0 1,9 16,5 17,0
NOVO MESTO ARSO 220 m 5 cm 18.8.2022 06:00 16,0 92,0 1,9 14,7 15,2
TREBNJE ARSO 303 m 2 m 18.8.2022 06:30 17,5 89,0 15,7 16,4
Elbl-2 DRSI 314 m 2 m 18.8.2022 04:30 20,0 21,0 0,3 -2,9 9,4
Krško DRSI 167 m 2 m 18.8.2022 05:00 19,0 86,0 1,1 16,6 17,5
Miklavž DRSI 257 m 2 m 18.8.2022 05:30 17,0 79,0 0,3 13,3 14,8
Trebnje DRSI 270 m 2 m 18.8.2022 06:30 16,5 85,0 0,4 14,0 15,0
Severovzhodna Slovenija
Lokacija Nadmorska višina Lega Višina meritve senzorja Datum in čas meritve Dosežena min. temperatura RH Veter (m/s) Temp. rosišča Temp. mokrega termometra
Dravinjski vrh 304 m Z 2 m 18.8.2022 05:30 20,6 69,9 2,3 14,9 17,0
Gačnik METOS 297 m 2 m 18.8.2022 06:30 16,1 99,9 0,0 16,1 16,1
Godemarci 212 m JV 2 m 18.8.2022 06:00 15,8 97,0 15,3 15,5
Godemarci 212 m JV 50 cm 18.8.2022 06:00 16,4 97,0 15,9 16,1
Litmerk 314 m JZ 2 m 18.8.2022 07:00 21,5 67,0 15,1 17,4
Maribor - BTŠ 276 m J 2 m 18.8.2022 06:00 17,4 88,0 0,2 15,4 16,1
Maribor - BTŠ 276 m J 50 cm 18.8.2022 06:30 16,4 84,8 0,4 13,8 14,8
Meranovo 501 m JV 2 m 18.8.2022 07:00 23,0 56,4 13,9 17,3
Moškanjci 213 m 2 m 18.8.2022 06:30 16,4 75,3 0,0 12,0 13,8
Pohorski dvor 313 m V 2 m 18.8.2022 06:30 17,0 77,8 13,1 14,6
Ritoznoj 402 m JV 2 m 18.8.2022 06:30 21,0 56,5 12,0 15,6
Savci 245 m JZ 2 m 18.8.2022 06:00 15,6 96,5 15,1 15,3
Selnica ob Dravi 311 m SV 2 m 18.8.2022 06:30 19,4 76,1 2,4 15,1 16,7
Selo 299 m J 2 m 18.8.2022 06:00 18,9 81,3 15,6 16,8
Stročja vas 240 m SV 2 m 18.8.2022 06:00 19,8 61,6 1,0 12,2 15,2
Špičnik 338 m 2 m 18.8.2022 06:30 15,9 98,7 15,7 15,8
Vidonci 337 m JV 2 m 18.8.2022 06:30 16,7 89,8 15,0 15,7
Vitomarci 299 m SV 2 m 18.8.2022 06:00 18,3 85,4 15,8 16,7
Zbigovci 299 m Z 2 m 18.8.2022 04:30 18,8 83,9 16,0 17,0
Zimica 296 m Z 2 m 18.8.2022 05:30 18,6 84,8 16,0 16,9
GAČNIK ARSO 291 m 2 m 18.8.2022 06:30 16,2 95,0 15,4 15,7
JERUZALEM - ARSO 335 m 2 m 18.8.2022 06:30 20,9 68,0 14,8 17,0
LENDAVA - TERME ARSO 161 m 2 m 18.8.2022 06:00 17,6 86,0 1,9 15,2 16,1
MARIBOR - LETALIŠČE ARSO 264 m 2 m 18.8.2022 06:30 17,0 84,0 1,1 14,3 15,3
MARIBOR - VRBANSKI PLATO ARSO 274 m 2 m 18.8.2022 05:30 17,5 84,0 1,4 14,8 15,8
MARINČA VAS - ARSO 272 m 2 m 18.8.2022 06:00 15,3 97,0 14,8 15,0
MURSKA SOBOTA - RAKIČAN ARSO 184 m 2 m 18.8.2022 06:00 15,9 94,0 2,5 14,9 15,3
MURSKA SOBOTA - RAKIČAN ARSO 184 m 5 cm 18.8.2022 06:00 14,3 94,0 2,5 13,4 13,7
PTUJ - ARSO 222 m 2 m 18.8.2022 05:30 16,6 91,0 1,7 15,1 15,7
SOTINSKI BREG ARSO 415 m 2 m 18.8.2022 05:00 19,6 72,0 3,9 14,4 16,4
Šentilj DRSI 300 m 2 m 18.8.2022 06:00 18,0 90,0 0,0 16,3 16,9
Postaje, katerih podatke prikazujemo na portalu, so postaje proizvajalca Adcon Telemetry.

IZJAVA O OMEJITVI ODGOVORNOSTI: Uprava Republike Slovenije za varno hrano, veterinarstvo in varstvo rastlin (Uprava) skupaj z Opazovalno napovedovalno službo zdravstvenega varstva rastlin skrbi za nemoteno delovanje in vzdrževanje meteoroloških podatkov iz mreže agrometeoroloških postaj (Adcon Telemety). Agrometeorološki podatki, ki so objavljeni na tej strani, so zgolj informativne narave. Za morebitne vsebinske napake, do katerih lahko pride zaradi tehničnih težav pri vzdrževanju mreže, napak merilne opreme ali drugih nepredvidljivih vzrokov, napak pri vnosu, posodabljanja vsebin, Uprava ne prevzema odgovornosti, kakor tudi ne zaradi nepravilnega delovanja in/ali nedostopnosti vsebine teh spletnih strani. Uprava tudi ne prevzema odgovornosti za kakršnokoli neposredno ali posredno izgubo oziroma škodo, materialno in nematerialno, ki bi nastala zaradi dostopa, uporabe ali odločitve, sprejete na podlagi informacij, objavljenih na teh spletnih straneh, kakor tudi ne zaradi nepravilnega delovanja in/ali nedostopnosti vsebine teh spletnih strani. Uprava si pridržuje pravico do spremembe oziroma umika vsebine, deloma ali v celoti, brez predhodne najave. Vsak poskus nepooblaščenega spreminjanja ali poškodovanja spletnih strani, kot tudi nepooblaščen dostop do informacij mimo spletnih strani in do drugih vsebin, je kaznivo dejanje. Pri uporabi vsebin, objavljenih na portalu, je potrebno navesti vir podatkov (UVHVVR, Agrometeorološki portal Slovenije) in upoštevati avtorske pravice.